sensor_id;sensor_type;location;lat;lon;timestamp;pressure;altitude;pressure_sealevel;temperature;humidity
22104;BME280;11218;48.886;9.426;2023-04-27T00:01:58;98085.34;;;8.93;66.13
22104;BME280;11218;48.886;9.426;2023-04-27T00:04:30;98089.09;;;8.92;67.06
22104;BME280;11218;48.886;9.426;2023-04-27T00:07:01;98092.94;;;8.96;66.98
22104;BME280;11218;48.886;9.426;2023-04-27T00:09:33;98093.69;;;8.91;66.70
22104;BME280;11218;48.886;9.426;2023-04-27T00:12:03;98086.81;;;8.83;66.28
22104;BME280;11218;48.886;9.426;2023-04-27T00:14:33;98083.69;;;8.75;65.41
22104;BME280;11218;48.886;9.426;2023-04-27T00:17:03;98082.63;;;8.76;65.56
22104;BME280;11218;48.886;9.426;2023-04-27T00:19:34;98082.75;;;8.69;66.28
22104;BME280;11218;48.886;9.426;2023-04-27T00:22:05;98079.03;;;8.59;66.43
22104;BME280;11218;48.886;9.426;2023-04-27T00:24:37;98077.41;;;8.57;66.48
22104;BME280;11218;48.886;9.426;2023-04-27T00:27:09;98078.22;;;8.58;66.88
22104;BME280;11218;48.886;9.426;2023-04-27T00:29:40;98076.69;;;8.62;66.76
22104;BME280;11218;48.886;9.426;2023-04-27T00:32:10;98082.41;;;8.66;66.46
22104;BME280;11218;48.886;9.426;2023-04-27T00:34:38;98064.81;;;8.58;66.22
22104;BME280;11218;48.886;9.426;2023-04-27T00:37:07;98071.81;;;8.59;66.50
22104;BME280;11218;48.886;9.426;2023-04-27T00:39:37;98065.84;;;8.57;66.62
22104;BME280;11218;48.886;9.426;2023-04-27T00:42:05;98059.91;;;8.55;66.25
22104;BME280;11218;48.886;9.426;2023-04-27T00:44:37;98066.81;;;8.51;65.82
22104;BME280;11218;48.886;9.426;2023-04-27T00:47:05;98055.72;;;8.47;66.38
22104;BME280;11218;48.886;9.426;2023-04-27T00:49:33;98060.97;;;8.42;65.94
22104;BME280;11218;48.886;9.426;2023-04-27T00:52:01;98052.69;;;8.32;65.26
22104;BME280;11218;48.886;9.426;2023-04-27T00:54:30;98058.75;;;8.28;65.27
22104;BME280;11218;48.886;9.426;2023-04-27T00:56:59;98052.56;;;8.27;65.89
22104;BME280;11218;48.886;9.426;2023-04-27T00:59:28;98056.41;;;8.31;65.92
22104;BME280;11218;48.886;9.426;2023-04-27T01:01:56;98059.31;;;8.30;66.40
22104;BME280;11218;48.886;9.426;2023-04-27T01:04:24;98059.69;;;8.21;66.89
22104;BME280;11218;48.886;9.426;2023-04-27T01:06:54;98064.97;;;8.16;67.51
22104;BME280;11218;48.886;9.426;2023-04-27T01:09:23;98055.84;;;8.17;68.44
22104;BME280;11218;48.886;9.426;2023-04-27T01:11:52;98061.78;;;8.19;68.58
22104;BME280;11218;48.886;9.426;2023-04-27T01:14:21;98060.16;;;8.18;68.33
22104;BME280;11218;48.886;9.426;2023-04-27T01:16:50;98057.34;;;8.25;68.42
22104;BME280;11218;48.886;9.426;2023-04-27T01:19:18;98060.59;;;8.27;69.15
22104;BME280;11218;48.886;9.426;2023-04-27T01:21:46;98065.75;;;8.29;68.64
22104;BME280;11218;48.886;9.426;2023-04-27T01:24:17;98068.34;;;8.35;68.68
22104;BME280;11218;48.886;9.426;2023-04-27T01:26:45;98060.53;;;8.34;68.86
22104;BME280;11218;48.886;9.426;2023-04-27T01:29:13;98056.41;;;8.31;67.94
22104;BME280;11218;48.886;9.426;2023-04-27T01:31:41;98062.81;;;8.30;68.32
22104;BME280;11218;48.886;9.426;2023-04-27T01:34:09;98057.69;;;8.29;67.60
22104;BME280;11218;48.886;9.426;2023-04-27T01:36:38;98062.59;;;8.20;67.32
22104;BME280;11218;48.886;9.426;2023-04-27T01:39:06;98054.22;;;8.16;67.54
22104;BME280;11218;48.886;9.426;2023-04-27T01:41:36;98052.09;;;8.18;67.39
22104;BME280;11218;48.886;9.426;2023-04-27T01:44:05;98061.53;;;8.21;68.17
22104;BME280;11218;48.886;9.426;2023-04-27T01:46:33;98067.13;;;8.19;68.43
22104;BME280;11218;48.886;9.426;2023-04-27T01:49:01;98056.19;;;8.21;68.95
22104;BME280;11218;48.886;9.426;2023-04-27T01:51:30;98056.66;;;8.18;68.56
22104;BME280;11218;48.886;9.426;2023-04-27T01:53:58;98066.81;;;8.16;69.49
22104;BME280;11218;48.886;9.426;2023-04-27T01:56:26;98067.06;;;8.14;69.66
22104;BME280;11218;48.886;9.426;2023-04-27T01:58:56;98075.31;;;8.13;69.67
22104;BME280;11218;48.886;9.426;2023-04-27T02:01:24;98068.81;;;8.09;70.18
22104;BME280;11218;48.886;9.426;2023-04-27T02:03:52;98070.31;;;8.05;70.57
22104;BME280;11218;48.886;9.426;2023-04-27T02:06:21;98075.91;;;8.03;70.69
22104;BME280;11218;48.886;9.426;2023-04-27T02:08:49;98078.59;;;8.03;71.03
22104;BME280;11218;48.886;9.426;2023-04-27T02:11:17;98080.00;;;8.06;71.07
22104;BME280;11218;48.886;9.426;2023-04-27T02:13:45;98078.00;;;8.01;71.02
22104;BME280;11218;48.886;9.426;2023-04-27T02:16:15;98081.97;;;7.99;71.53
22104;BME280;11218;48.886;9.426;2023-04-27T02:18:44;98082.09;;;8.04;71.60
22104;BME280;11218;48.886;9.426;2023-04-27T02:21:13;98084.53;;;8.05;71.24
22104;BME280;11218;48.886;9.426;2023-04-27T02:23:44;98086.63;;;8.03;71.69
22104;BME280;11218;48.886;9.426;2023-04-27T02:26:18;98079.88;;;8.01;71.58
22104;BME280;11218;48.886;9.426;2023-04-27T02:28:50;98084.19;;;8.02;71.70
22104;BME280;11218;48.886;9.426;2023-04-27T02:31:22;98086.84;;;8.02;72.05
22104;BME280;11218;48.886;9.426;2023-04-27T02:33:52;98089.19;;;7.98;72.43
22104;BME280;11218;48.886;9.426;2023-04-27T02:36:20;98089.78;;;8.00;72.09
22104;BME280;11218;48.886;9.426;2023-04-27T02:38:49;98101.31;;;8.01;72.09
22104;BME280;11218;48.886;9.426;2023-04-27T02:41:20;98099.22;;;8.03;72.48
22104;BME280;11218;48.886;9.426;2023-04-27T02:43:49;98088.72;;;8.01;71.83
22104;BME280;11218;48.886;9.426;2023-04-27T02:46:17;98102.13;;;8.01;72.43
22104;BME280;11218;48.886;9.426;2023-04-27T02:48:47;98093.50;;;7.99;72.70
22104;BME280;11218;48.886;9.426;2023-04-27T02:51:18;98085.56;;;7.93;72.23
22104;BME280;11218;48.886;9.426;2023-04-27T02:53:46;98092.34;;;7.95;72.69
22104;BME280;11218;48.886;9.426;2023-04-27T02:56:14;98099.31;;;7.96;72.75
22104;BME280;11218;48.886;9.426;2023-04-27T02:58:43;98096.28;;;7.93;72.21
22104;BME280;11218;48.886;9.426;2023-04-27T03:01:11;98102.00;;;7.96;72.19
22104;BME280;11218;48.886;9.426;2023-04-27T03:03:40;98103.41;;;7.99;72.28
22104;BME280;11218;48.886;9.426;2023-04-27T03:06:09;98093.16;;;7.96;72.72
22104;BME280;11218;48.886;9.426;2023-04-27T03:08:37;98099.09;;;7.98;73.12
22104;BME280;11218;48.886;9.426;2023-04-27T03:11:06;98092.34;;;7.95;72.98
22104;BME280;11218;48.886;9.426;2023-04-27T03:13:35;98094.19;;;7.95;72.99
22104;BME280;11218;48.886;9.426;2023-04-27T03:16:08;98100.59;;;7.94;73.01
22104;BME280;11218;48.886;9.426;2023-04-27T03:18:38;98098.75;;;7.94;73.30
22104;BME280;11218;48.886;9.426;2023-04-27T03:21:07;98100.84;;;7.92;73.50
22104;BME280;11218;48.886;9.426;2023-04-27T03:23:37;98101.41;;;7.94;72.99
22104;BME280;11218;48.886;9.426;2023-04-27T03:26:06;98102.22;;;7.95;73.25
22104;BME280;11218;48.886;9.426;2023-04-27T03:28:35;98108.88;;;7.92;73.78
22104;BME280;11218;48.886;9.426;2023-04-27T03:31:04;98104.56;;;7.91;74.13
22104;BME280;11218;48.886;9.426;2023-04-27T03:33:32;98104.78;;;7.89;73.79
22104;BME280;11218;48.886;9.426;2023-04-27T03:36:01;98112.47;;;7.86;74.45
22104;BME280;11218;48.886;9.426;2023-04-27T03:38:30;98109.22;;;7.84;74.04
22104;BME280;11218;48.886;9.426;2023-04-27T03:41:00;98098.94;;;7.81;74.70
22104;BME280;11218;48.886;9.426;2023-04-27T03:43:28;98100.00;;;7.80;73.75
22104;BME280;11218;48.886;9.426;2023-04-27T03:45:56;98106.16;;;7.80;73.35
22104;BME280;11218;48.886;9.426;2023-04-27T03:48:25;98090.78;;;7.76;73.36
22104;BME280;11218;48.886;9.426;2023-04-27T03:50:52;98099.88;;;7.75;72.66
22104;BME280;11218;48.886;9.426;2023-04-27T03:53:20;98099.38;;;7.66;71.69
22104;BME280;11218;48.886;9.426;2023-04-27T03:55:48;98101.25;;;7.66;72.38
22104;BME280;11218;48.886;9.426;2023-04-27T03:58:18;98095.53;;;7.62;71.49
22104;BME280;11218;48.886;9.426;2023-04-27T04:00:46;98108.56;;;7.58;72.13
22104;BME280;11218;48.886;9.426;2023-04-27T04:03:14;98106.56;;;7.54;71.52
22104;BME280;11218;48.886;9.426;2023-04-27T04:05:43;98116.69;;;7.52;71.28
22104;BME280;11218;48.886;9.426;2023-04-27T04:08:13;98107.16;;;7.56;72.13
22104;BME280;11218;48.886;9.426;2023-04-27T04:10:41;98100.97;;;7.55;71.15
22104;BME280;11218;48.886;9.426;2023-04-27T04:13:09;98108.91;;;7.62;72.08
22104;BME280;11218;48.886;9.426;2023-04-27T04:15:39;98104.16;;;7.64;72.89
22104;BME280;11218;48.886;9.426;2023-04-27T04:18:07;98110.22;;;7.71;73.04
22104;BME280;11218;48.886;9.426;2023-04-27T04:20:35;98110.81;;;7.73;73.91
22104;BME280;11218;48.886;9.426;2023-04-27T04:23:03;98111.75;;;7.79;74.00
22104;BME280;11218;48.886;9.426;2023-04-27T04:25:31;98104.31;;;7.81;74.00
22104;BME280;11218;48.886;9.426;2023-04-27T04:28:00;98112.94;;;7.83;73.12
22104;BME280;11218;48.886;9.426;2023-04-27T04:30:28;98099.41;;;7.78;72.93
22104;BME280;11218;48.886;9.426;2023-04-27T04:32:57;98110.47;;;7.81;72.87
22104;BME280;11218;48.886;9.426;2023-04-27T04:35:26;98120.75;;;7.84;73.33
22104;BME280;11218;48.886;9.426;2023-04-27T04:37:54;98119.94;;;7.84;73.47
22104;BME280;11218;48.886;9.426;2023-04-27T04:40:22;98123.41;;;7.84;74.26
22104;BME280;11218;48.886;9.426;2023-04-27T04:42:50;98118.53;;;7.81;74.03
22104;BME280;11218;48.886;9.426;2023-04-27T04:45:18;98118.53;;;7.81;74.12
22104;BME280;11218;48.886;9.426;2023-04-27T04:47:47;98118.06;;;7.84;74.38
22104;BME280;11218;48.886;9.426;2023-04-27T04:50:17;98124.00;;;7.86;74.33
22104;BME280;11218;48.886;9.426;2023-04-27T04:52:45;98124.72;;;7.94;73.46
22104;BME280;11218;48.886;9.426;2023-04-27T04:55:14;98129.94;;;7.88;73.90
22104;BME280;11218;48.886;9.426;2023-04-27T04:57:43;98130.53;;;7.90;73.90
22104;BME280;11218;48.886;9.426;2023-04-27T05:00:12;98122.03;;;7.94;74.79
22104;BME280;11218;48.886;9.426;2023-04-27T05:02:40;98133.13;;;7.97;74.37
22104;BME280;11218;48.886;9.426;2023-04-27T05:05:08;98131.72;;;8.06;73.61
22104;BME280;11218;48.886;9.426;2023-04-27T05:07:38;98123.94;;;8.05;73.86
22104;BME280;11218;48.886;9.426;2023-04-27T05:10:06;98116.34;;;8.02;72.85
22104;BME280;11218;48.886;9.426;2023-04-27T05:12:35;98133.00;;;8.04;72.66
22104;BME280;11218;48.886;9.426;2023-04-27T05:15:03;98130.22;;;8.10;73.19
22104;BME280;11218;48.886;9.426;2023-04-27T05:17:32;98123.59;;;8.13;72.50
22104;BME280;11218;48.886;9.426;2023-04-27T05:20:00;98130.66;;;8.19;72.05
22104;BME280;11218;48.886;9.426;2023-04-27T05:22:28;98128.94;;;8.24;72.43
22104;BME280;11218;48.886;9.426;2023-04-27T05:24:58;98121.69;;;8.25;72.64
22104;BME280;11218;48.886;9.426;2023-04-27T05:27:26;98125.94;;;8.33;71.04
22104;BME280;11218;48.886;9.426;2023-04-27T05:29:54;98113.69;;;8.37;70.93
22104;BME280;11218;48.886;9.426;2023-04-27T05:32:23;98122.19;;;8.45;71.18
22104;BME280;11218;48.886;9.426;2023-04-27T05:34:51;98123.13;;;8.51;69.85
22104;BME280;11218;48.886;9.426;2023-04-27T05:37:19;98125.13;;;8.55;69.69
22104;BME280;11218;48.886;9.426;2023-04-27T05:39:47;98121.72;;;8.60;69.32
22104;BME280;11218;48.886;9.426;2023-04-27T05:42:17;98122.88;;;8.64;68.69
22104;BME280;11218;48.886;9.426;2023-04-27T05:44:46;98127.31;;;8.70;68.56
22104;BME280;11218;48.886;9.426;2023-04-27T05:47:13;98125.56;;;8.76;68.08
22104;BME280;11218;48.886;9.426;2023-04-27T05:49:42;98125.09;;;8.79;67.66
22104;BME280;11218;48.886;9.426;2023-04-27T05:52:10;98133.25;;;8.84;66.49
22104;BME280;11218;48.886;9.426;2023-04-27T05:54:38;98137.34;;;8.86;66.01
22104;BME280;11218;48.886;9.426;2023-04-27T05:57:06;98142.00;;;8.91;65.95
22104;BME280;11218;48.886;9.426;2023-04-27T05:59:36;98142.66;;;8.98;65.62
22104;BME280;11218;48.886;9.426;2023-04-27T06:02:05;98143.81;;;9.02;65.76
22104;BME280;11218;48.886;9.426;2023-04-27T06:04:33;98150.09;;;9.08;65.40
22104;BME280;11218;48.886;9.426;2023-04-27T06:07:06;98159.88;;;9.14;65.23
22104;BME280;11218;48.886;9.426;2023-04-27T06:09:36;98155.19;;;9.21;65.14
22104;BME280;11218;48.886;9.426;2023-04-27T06:12:05;98157.19;;;9.26;65.05
22104;BME280;11218;48.886;9.426;2023-04-27T06:14:35;98158.09;;;9.31;65.55
22104;BME280;11218;48.886;9.426;2023-04-27T06:17:06;98167.66;;;9.39;64.95
22104;BME280;11218;48.886;9.426;2023-04-27T06:19:34;98169.97;;;9.47;64.96
22104;BME280;11218;48.886;9.426;2023-04-27T06:22:02;98169.81;;;9.53;64.89
22104;BME280;11218;48.886;9.426;2023-04-27T06:24:30;98171.53;;;9.60;64.67
22104;BME280;11218;48.886;9.426;2023-04-27T06:26:58;98169.50;;;9.67;64.21
22104;BME280;11218;48.886;9.426;2023-04-27T06:29:26;98165.38;;;9.76;63.79
22104;BME280;11218;48.886;9.426;2023-04-27T06:31:56;98163.84;;;9.80;63.37
22104;BME280;11218;48.886;9.426;2023-04-27T06:34:24;98163.94;;;9.85;63.44
22104;BME280;11218;48.886;9.426;2023-04-27T06:36:52;98163.78;;;9.92;63.20
22104;BME280;11218;48.886;9.426;2023-04-27T06:39:20;98167.38;;;9.97;62.93
22104;BME280;11218;48.886;9.426;2023-04-27T06:41:48;98164.03;;;10.07;62.01
22104;BME280;11218;48.886;9.426;2023-04-27T06:44:16;98161.44;;;10.12;61.90
22104;BME280;11218;48.886;9.426;2023-04-27T06:46:44;98157.56;;;10.19;62.08
22104;BME280;11218;48.886;9.426;2023-04-27T06:49:14;98154.47;;;10.28;61.62
22104;BME280;11218;48.886;9.426;2023-04-27T06:51:42;98161.06;;;10.37;61.54
22104;BME280;11218;48.886;9.426;2023-04-27T06:54:12;98156.06;;;10.45;61.30
22104;BME280;11218;48.886;9.426;2023-04-27T06:56:40;98161.28;;;10.52;60.52
22104;BME280;11218;48.886;9.426;2023-04-27T06:59:08;98163.31;;;10.62;60.54
22104;BME280;11218;48.886;9.426;2023-04-27T07:01:37;98169.34;;;10.69;60.29
22104;BME280;11218;48.886;9.426;2023-04-27T07:04:05;98171.34;;;10.78;60.66
22104;BME280;11218;48.886;9.426;2023-04-27T07:06:35;98177.38;;;10.85;60.47
22104;BME280;11218;48.886;9.426;2023-04-27T07:09:03;98174.66;;;11.02;58.91
22104;BME280;11218;48.886;9.426;2023-04-27T07:11:45;98172.09;;;11.12;58.39
22104;BME280;11218;48.886;9.426;2023-04-27T07:14:13;98178.28;;;11.13;58.48
22104;BME280;11218;48.886;9.426;2023-04-27T07:16:41;98174.56;;;11.19;58.48
22104;BME280;11218;48.886;9.426;2023-04-27T07:19:10;98184.72;;;11.34;58.42
22104;BME280;11218;48.886;9.426;2023-04-27T07:21:40;98186.75;;;11.43;57.56
22104;BME280;11218;48.886;9.426;2023-04-27T07:24:08;98174.38;;;11.47;57.19
22104;BME280;11218;48.886;9.426;2023-04-27T07:26:36;98183.97;;;11.60;58.24
22104;BME280;11218;48.886;9.426;2023-04-27T07:29:05;98183.53;;;11.68;56.40
22104;BME280;11218;48.886;9.426;2023-04-27T07:31:52;98182.75;;;11.73;57.46
22104;BME280;11218;48.886;9.426;2023-04-27T07:34:21;98184.03;;;11.87;56.38
22104;BME280;11218;48.886;9.426;2023-04-27T07:36:51;98173.81;;;11.94;56.57
22104;BME280;11218;48.886;9.426;2023-04-27T07:39:20;98169.69;;;12.13;55.85
22104;BME280;11218;48.886;9.426;2023-04-27T07:41:49;98173.75;;;12.16;54.73
22104;BME280;11218;48.886;9.426;2023-04-27T07:44:18;98170.94;;;12.33;55.50
22104;BME280;11218;48.886;9.426;2023-04-27T07:46:47;98160.72;;;12.40;55.04
22104;BME280;11218;48.886;9.426;2023-04-27T07:49:17;98158.16;;;12.55;54.68
22104;BME280;11218;48.886;9.426;2023-04-27T07:51:47;98162.50;;;12.66;53.21
22104;BME280;11218;48.886;9.426;2023-04-27T07:54:18;98168.56;;;12.83;52.89
22104;BME280;11218;48.886;9.426;2023-04-27T07:56:47;98174.00;;;12.89;53.09
22104;BME280;11218;48.886;9.426;2023-04-27T07:59:17;98170.56;;;13.03;51.85
22104;BME280;11218;48.886;9.426;2023-04-27T08:01:46;98173.31;;;13.08;51.51
22104;BME280;11218;48.886;9.426;2023-04-27T08:04:15;98177.72;;;13.20;51.68
22104;BME280;11218;48.886;9.426;2023-04-27T08:06:46;98164.84;;;13.47;51.07
22104;BME280;11218;48.886;9.426;2023-04-27T08:09:19;98168.69;;;13.66;50.65
22104;BME280;11218;48.886;9.426;2023-04-27T08:11:48;98169.78;;;13.75;50.53
22104;BME280;11218;48.886;9.426;2023-04-27T08:14:18;98172.81;;;13.89;48.16
22104;BME280;11218;48.886;9.426;2023-04-27T08:16:48;98167.94;;;13.91;48.03
22104;BME280;11218;48.886;9.426;2023-04-27T08:19:19;98168.22;;;14.05;48.01
22104;BME280;11218;48.886;9.426;2023-04-27T08:21:47;98167.13;;;14.31;47.51
22104;BME280;11218;48.886;9.426;2023-04-27T08:24:15;98159.31;;;14.50;46.30
22104;BME280;11218;48.886;9.426;2023-04-27T08:26:44;98154.44;;;14.52;46.39
22104;BME280;11218;48.886;9.426;2023-04-27T08:29:12;98161.75;;;14.57;46.34
22104;BME280;11218;48.886;9.426;2023-04-27T08:31:53;98158.47;;;14.75;47.14
22104;BME280;11218;48.886;9.426;2023-04-27T08:34:22;98162.44;;;15.08;45.77
22104;BME280;11218;48.886;9.426;2023-04-27T08:36:50;98151.50;;;15.33;45.50
22104;BME280;11218;48.886;9.426;2023-04-27T08:39:19;98151.94;;;15.61;44.23
22104;BME280;11218;48.886;9.426;2023-04-27T08:41:49;98136.34;;;15.82;44.98
22104;BME280;11218;48.886;9.426;2023-04-27T08:44:17;98133.75;;;16.05;43.01
22104;BME280;11218;48.886;9.426;2023-04-27T08:46:46;98128.75;;;16.18;43.03
22104;BME280;11218;48.886;9.426;2023-04-27T08:49:14;98134.38;;;16.31;42.40
22104;BME280;11218;48.886;9.426;2023-04-27T08:51:43;98136.16;;;16.41;41.82
22104;BME280;11218;48.886;9.426;2023-04-27T08:54:11;98127.09;;;16.51;41.09
22104;BME280;11218;48.886;9.426;2023-04-27T08:56:39;98129.72;;;16.61;41.00
22104;BME280;11218;48.886;9.426;2023-04-27T08:59:14;98124.56;;;16.64;40.36
22104;BME280;11218;48.886;9.426;2023-04-27T09:01:44;98118.56;;;16.62;40.78
22104;BME280;11218;48.886;9.426;2023-04-27T09:04:15;98126.69;;;16.67;41.17
22104;BME280;11218;48.886;9.426;2023-04-27T09:06:47;98134.06;;;16.62;40.03
22104;BME280;11218;48.886;9.426;2023-04-27T09:09:21;98121.75;;;16.74;40.45
22104;BME280;11218;48.886;9.426;2023-04-27T09:11:51;98127.13;;;16.80;40.77
22104;BME280;11218;48.886;9.426;2023-04-27T09:14:23;98120.94;;;16.98;39.61
22104;BME280;11218;48.886;9.426;2023-04-27T09:16:54;98124.34;;;16.56;40.62
22104;BME280;11218;48.886;9.426;2023-04-27T09:19:29;98127.31;;;16.30;41.75
22104;BME280;11218;48.886;9.426;2023-04-27T09:22:05;98131.88;;;16.64;42.23
22104;BME280;11218;48.886;9.426;2023-04-27T09:24:36;98135.28;;;16.80;41.07
22104;BME280;11218;48.886;9.426;2023-04-27T09:27:06;98125.16;;;16.85;41.15
22104;BME280;11218;48.886;9.426;2023-04-27T09:29:38;98135.00;;;17.05;40.86
22104;BME280;11218;48.886;9.426;2023-04-27T09:32:15;98134.44;;;17.08;39.78
22104;BME280;11218;48.886;9.426;2023-04-27T09:34:48;98147.28;;;17.02;39.33
22104;BME280;11218;48.886;9.426;2023-04-27T09:37:20;98141.38;;;16.95;40.51
22104;BME280;11218;48.886;9.426;2023-04-27T09:39:51;98140.97;;;17.07;39.99
22104;BME280;11218;48.886;9.426;2023-04-27T09:42:22;98138.75;;;17.09;40.48
22104;BME280;11218;48.886;9.426;2023-04-27T09:44:55;98136.13;;;17.23;39.30
22104;BME280;11218;48.886;9.426;2023-04-27T09:47:26;98136.41;;;17.02;39.21
22104;BME280;11218;48.886;9.426;2023-04-27T09:49:58;98138.75;;;16.85;39.28
22104;BME280;11218;48.886;9.426;2023-04-27T09:52:30;98135.59;;;17.02;39.48
22104;BME280;11218;48.886;9.426;2023-04-27T09:55:01;98129.78;;;17.08;38.49
22104;BME280;11218;48.886;9.426;2023-04-27T09:57:36;98134.13;;;17.09;39.12
22104;BME280;11218;48.886;9.426;2023-04-27T10:00:22;98130.34;;;17.29;39.39
22104;BME280;11218;48.886;9.426;2023-04-27T10:03:05;98131.84;;;17.40;38.80
22104;BME280;11218;48.886;9.426;2023-04-27T10:05:58;98124.84;;;17.34;38.26
22104;BME280;11218;48.886;9.426;2023-04-27T10:08:35;98119.81;;;17.23;40.64
22104;BME280;11218;48.886;9.426;2023-04-27T10:11:12;98114.47;;;17.36;40.94
22104;BME280;11218;48.886;9.426;2023-04-27T10:13:51;98113.59;;;17.41;39.93
22104;BME280;11218;48.886;9.426;2023-04-27T10:16:23;98121.31;;;17.34;39.48
22104;BME280;11218;48.886;9.426;2023-04-27T10:18:54;98124.31;;;17.32;40.31
22104;BME280;11218;48.886;9.426;2023-04-27T10:21:23;98114.88;;;17.49;39.23
22104;BME280;11218;48.886;9.426;2023-04-27T10:23:54;98118.53;;;17.39;39.18
22104;BME280;11218;48.886;9.426;2023-04-27T10:26:24;98124.84;;;17.34;39.09
22104;BME280;11218;48.886;9.426;2023-04-27T10:28:59;98121.97;;;17.26;38.83
22104;BME280;11218;48.886;9.426;2023-04-27T10:31:42;98126.47;;;17.35;38.04
22104;BME280;11218;48.886;9.426;2023-04-27T10:34:16;98127.09;;;17.27;37.64
22104;BME280;11218;48.886;9.426;2023-04-27T10:36:47;98123.50;;;17.32;37.52
22104;BME280;11218;48.886;9.426;2023-04-27T10:39:20;98130.88;;;17.31;37.42
22104;BME280;11218;48.886;9.426;2023-04-27T10:42:12;98121.09;;;17.30;37.00
22104;BME280;11218;48.886;9.426;2023-04-27T10:44:42;98115.75;;;17.44;36.83
22104;BME280;11218;48.886;9.426;2023-04-27T10:47:15;98115.97;;;17.48;36.25
22104;BME280;11218;48.886;9.426;2023-04-27T10:49:47;98121.06;;;17.54;36.05
22104;BME280;11218;48.886;9.426;2023-04-27T10:52:17;98115.44;;;17.46;36.51
22104;BME280;11218;48.886;9.426;2023-04-27T10:54:47;98118.69;;;17.48;36.33
22104;BME280;11218;48.886;9.426;2023-04-27T10:57:17;98106.47;;;17.45;37.26
22104;BME280;11218;48.886;9.426;2023-04-27T10:59:47;98105.38;;;17.65;37.17
22104;BME280;11218;48.886;9.426;2023-04-27T11:02:24;98108.25;;;17.55;37.19
22104;BME280;11218;48.886;9.426;2023-04-27T11:04:55;98101.63;;;17.61;37.15
22104;BME280;11218;48.886;9.426;2023-04-27T11:07:26;98110.91;;;17.97;38.21
22104;BME280;11218;48.886;9.426;2023-04-27T11:09:56;98100.63;;;18.27;36.50
22104;BME280;11218;48.886;9.426;2023-04-27T11:12:25;98111.28;;;18.42;33.88
22104;BME280;11218;48.886;9.426;2023-04-27T11:14:56;98110.03;;;18.34;34.22
22104;BME280;11218;48.886;9.426;2023-04-27T11:17:31;98115.19;;;18.36;34.20
22104;BME280;11218;48.886;9.426;2023-04-27T11:20:02;98104.91;;;18.33;33.62
22104;BME280;11218;48.886;9.426;2023-04-27T11:22:32;98098.81;;;18.22;34.25
22104;BME280;11218;48.886;9.426;2023-04-27T11:25:02;98107.91;;;18.31;34.44
22104;BME280;11218;48.886;9.426;2023-04-27T11:27:36;98102.28;;;18.42;34.38
22104;BME280;11218;48.886;9.426;2023-04-27T11:30:18;98111.09;;;18.20;34.18
22104;BME280;11218;48.886;9.426;2023-04-27T11:32:50;98095.69;;;18.29;35.52
22104;BME280;11218;48.886;9.426;2023-04-27T11:35:32;98100.47;;;18.37;35.65
22104;BME280;11218;48.886;9.426;2023-04-27T11:38:02;98104.59;;;18.34;35.31
22104;BME280;11218;48.886;9.426;2023-04-27T11:40:33;98093.84;;;18.57;35.69
22104;BME280;11218;48.886;9.426;2023-04-27T11:43:05;98088.28;;;18.48;35.47
22104;BME280;11218;48.886;9.426;2023-04-27T11:45:35;98087.44;;;18.34;34.88
22104;BME280;11218;48.886;9.426;2023-04-27T11:48:13;98094.53;;;18.49;36.14
22104;BME280;11218;48.886;9.426;2023-04-27T11:50:45;98099.84;;;18.73;35.85
22104;BME280;11218;48.886;9.426;2023-04-27T11:53:15;98105.59;;;18.85;35.81
22104;BME280;11218;48.886;9.426;2023-04-27T11:55:51;98096.69;;;18.65;35.35
22104;BME280;11218;48.886;9.426;2023-04-27T11:58:20;98102.25;;;18.74;35.02
22104;BME280;11218;48.886;9.426;2023-04-27T12:00:52;98105.06;;;18.55;34.93
22104;BME280;11218;48.886;9.426;2023-04-27T12:03:23;98103.56;;;18.63;35.96
22104;BME280;11218;48.886;9.426;2023-04-27T12:05:53;98098.13;;;18.77;35.50
22104;BME280;11218;48.886;9.426;2023-04-27T12:08:22;98099.66;;;18.96;36.48
22104;BME280;11218;48.886;9.426;2023-04-27T12:10:50;98086.00;;;19.24;35.15
22104;BME280;11218;48.886;9.426;2023-04-27T12:13:19;98090.75;;;19.18;35.38
22104;BME280;11218;48.886;9.426;2023-04-27T12:15:47;98095.22;;;19.14;35.57
22104;BME280;11218;48.886;9.426;2023-04-27T12:18:15;98089.56;;;19.11;34.95
22104;BME280;11218;48.886;9.426;2023-04-27T12:20:44;98085.59;;;19.30;35.76
22104;BME280;11218;48.886;9.426;2023-04-27T12:23:13;98087.38;;;19.49;34.47
22104;BME280;11218;48.886;9.426;2023-04-27T12:25:41;98087.16;;;19.45;35.09
22104;BME280;11218;48.886;9.426;2023-04-27T12:28:09;98078.28;;;19.40;34.69
22104;BME280;11218;48.886;9.426;2023-04-27T12:30:43;98071.81;;;19.35;35.41
22104;BME280;11218;48.886;9.426;2023-04-27T12:33:11;98083.72;;;19.67;35.70
22104;BME280;11218;48.886;9.426;2023-04-27T12:35:40;98084.63;;;19.62;35.48
22104;BME280;11218;48.886;9.426;2023-04-27T12:38:09;98069.28;;;19.53;35.31
22104;BME280;11218;48.886;9.426;2023-04-27T12:40:38;98069.97;;;19.45;36.14
22104;BME280;11218;48.886;9.426;2023-04-27T12:43:06;98071.31;;;19.33;34.84
22104;BME280;11218;48.886;9.426;2023-04-27T12:45:35;98061.50;;;19.32;35.79
22104;BME280;11218;48.886;9.426;2023-04-27T12:48:03;98066.41;;;19.22;35.25
22104;BME280;11218;48.886;9.426;2023-04-27T12:50:35;98073.16;;;19.24;35.51
22104;BME280;11218;48.886;9.426;2023-04-27T12:53:04;98070.75;;;19.09;34.55
22104;BME280;11218;48.886;9.426;2023-04-27T12:55:34;98067.81;;;18.92;35.16
22104;BME280;11218;48.886;9.426;2023-04-27T12:58:03;98065.91;;;18.79;35.69
22104;BME280;11218;48.886;9.426;2023-04-27T13:00:32;98053.56;;;18.67;36.17
22104;BME280;11218;48.886;9.426;2023-04-27T13:03:00;98058.03;;;18.77;36.76
22104;BME280;11218;48.886;9.426;2023-04-27T13:05:29;98063.47;;;18.63;36.26
22104;BME280;11218;48.886;9.426;2023-04-27T13:07:58;98060.94;;;18.67;38.12
22104;BME280;11218;48.886;9.426;2023-04-27T13:10:26;98048.13;;;18.81;37.06
22104;BME280;11218;48.886;9.426;2023-04-27T13:12:56;98039.03;;;18.86;36.80
22104;BME280;11218;48.886;9.426;2023-04-27T13:15:27;98042.47;;;18.91;35.86
22104;BME280;11218;48.886;9.426;2023-04-27T13:17:55;98044.38;;;18.91;37.55
22104;BME280;11218;48.886;9.426;2023-04-27T13:20:24;98041.84;;;19.22;37.66